sensor_id;sensor_type;location;lat;lon;timestamp;pressure;altitude;pressure_sealevel;temperature;humidity
86775;BME280;77538;20.812;106.824;2024-03-25T09:12:54;101084.85;;;24.22;62.13
86775;BME280;77538;20.812;106.824;2024-03-25T09:15:22;101087.55;;;24.23;62.14
86775;BME280;77538;20.812;106.824;2024-03-25T09:17:53;101086.84;;;24.23;62.10
86775;BME280;77538;20.812;106.824;2024-03-25T09:20:21;101087.52;;;24.22;62.26
86775;BME280;77538;20.812;106.824;2024-03-25T09:22:51;101085.88;;;24.20;62.63
86775;BME280;77538;20.812;106.824;2024-03-25T09:25:20;101086.91;;;24.20;62.47
86775;BME280;77538;20.812;106.824;2024-03-25T09:27:49;101087.30;;;24.23;62.61
86775;BME280;77538;20.812;106.824;2024-03-25T09:30:18;101085.21;;;24.25;62.53
86775;BME280;77538;20.812;106.824;2024-03-25T09:32:47;101084.01;;;24.26;62.63
86775;BME280;77538;20.812;106.824;2024-03-25T09:35:15;101084.92;;;24.27;62.61
86775;BME280;77538;20.812;106.824;2024-03-25T09:37:46;101086.44;;;24.27;62.71
86775;BME280;77538;20.812;106.824;2024-03-25T09:40:14;101087.55;;;24.25;62.42
86775;BME280;77538;20.812;106.824;2024-03-25T09:42:49;101086.16;;;24.24;62.54
86775;BME280;77538;20.812;106.824;2024-03-25T09:45:21;101084.38;;;24.22;62.51
86775;BME280;77538;20.812;106.824;2024-03-25T09:47:52;101084.22;;;24.22;62.46
86775;BME280;77538;20.812;106.824;2024-03-25T09:50:22;101087.42;;;24.22;62.66
86775;BME280;77538;20.812;106.824;2024-03-25T09:52:50;101086.43;;;24.23;63.08
86775;BME280;77538;20.812;106.824;2024-03-25T09:55:21;101087.98;;;24.24;63.25
86775;BME280;77538;20.812;106.824;2024-03-25T09:57:51;101092.65;;;24.25;62.95
86775;BME280;77538;20.812;106.824;2024-03-25T10:00:20;101092.86;;;24.27;62.78
86775;BME280;77538;20.812;106.824;2024-03-25T10:02:48;101091.95;;;24.27;62.62
86775;BME280;77538;20.812;106.824;2024-03-25T10:05:19;101096.44;;;24.28;62.61
86775;BME280;77538;20.812;106.824;2024-03-25T10:07:47;101105.45;;;24.26;62.43
86775;BME280;77538;20.812;106.824;2024-03-25T10:10:21;101107.52;;;24.23;62.28
86775;BME280;77538;20.812;106.824;2024-03-25T10:12:49;101110.44;;;24.20;62.23
86775;BME280;77538;20.812;106.824;2024-03-25T10:15:18;101116.80;;;24.17;62.33
86775;BME280;77538;20.812;106.824;2024-03-25T10:17:48;101117.39;;;24.10;62.64
86775;BME280;77538;20.812;106.824;2024-03-25T10:20:18;101118.94;;;24.10;62.70
86775;BME280;77538;20.812;106.824;2024-03-25T10:22:46;101122.08;;;24.08;62.92
86775;BME280;77538;20.812;106.824;2024-03-25T10:25:27;101121.80;;;24.10;63.23
86775;BME280;77538;20.812;106.824;2024-03-25T10:28:01;101125.52;;;24.16;63.03
86775;BME280;77538;20.812;106.824;2024-03-25T10:30:29;101122.97;;;24.18;62.87
86775;BME280;77538;20.812;106.824;2024-03-25T10:33:03;101123.67;;;24.19;62.64
86775;BME280;77538;20.812;106.824;2024-03-25T10:35:36;101122.59;;;24.18;62.62
86775;BME280;77538;20.812;106.824;2024-03-25T10:38:07;101123.22;;;24.18;62.39
86775;BME280;77538;20.812;106.824;2024-03-25T10:40:38;101128.06;;;24.17;62.23
86775;BME280;77538;20.812;106.824;2024-03-25T10:43:09;101129.10;;;24.17;62.37
86775;BME280;77538;20.812;106.824;2024-03-25T10:45:42;101130.16;;;24.16;62.15
86775;BME280;77538;20.812;106.824;2024-03-25T10:50:56;101128.73;;;24.19;61.95
86775;BME280;77538;20.812;106.824;2024-03-25T10:53:24;101133.59;;;24.17;61.73
86775;BME280;77538;20.812;106.824;2024-03-25T10:55:55;101133.96;;;24.15;61.95
86775;BME280;77538;20.812;106.824;2024-03-25T10:58:23;101135.20;;;24.14;61.71
86775;BME280;77538;20.812;106.824;2024-03-25T11:00:53;101136.84;;;24.12;61.72
86775;BME280;77538;20.812;106.824;2024-03-25T11:03:24;101138.85;;;24.06;61.51
86775;BME280;77538;20.812;106.824;2024-03-25T11:05:54;101139.02;;;23.96;61.44
86775;BME280;77538;20.812;106.824;2024-03-25T11:08:30;101148.96;;;23.87;61.47
86775;BME280;77538;20.812;106.824;2024-03-25T11:11:00;101151.11;;;23.77;61.22
86775;BME280;77538;20.812;106.824;2024-03-25T11:13:28;101153.39;;;23.73;61.66
86775;BME280;77538;20.812;106.824;2024-03-25T11:15:57;101152.29;;;23.72;61.74
86775;BME280;77538;20.812;106.824;2024-03-25T11:18:28;101158.34;;;23.73;61.90
86775;BME280;77538;20.812;106.824;2024-03-25T11:21:05;101156.77;;;23.78;62.02
86775;BME280;77538;20.812;106.824;2024-03-25T11:23:45;101159.58;;;23.83;61.85
86775;BME280;77538;20.812;106.824;2024-03-25T11:26:24;101158.10;;;23.89;61.92
86775;BME280;77538;20.812;106.824;2024-03-25T11:28:56;101161.79;;;23.96;61.74
86775;BME280;77538;20.812;106.824;2024-03-25T11:31:25;101163.11;;;24.00;61.65
86775;BME280;77538;20.812;106.824;2024-03-25T11:33:55;101163.02;;;24.01;61.89
86775;BME280;77538;20.812;106.824;2024-03-25T11:36:27;101163.58;;;24.05;62.07
86775;BME280;77538;20.812;106.824;2024-03-25T11:39:05;101163.59;;;24.11;62.18
86775;BME280;77538;20.812;106.824;2024-03-25T11:41:42;101167.10;;;24.19;62.00
86775;BME280;77538;20.812;106.824;2024-03-25T11:44:11;101164.44;;;24.25;62.08
86775;BME280;77538;20.812;106.824;2024-03-25T11:46:44;101166.13;;;24.32;62.06
86775;BME280;77538;20.812;106.824;2024-03-25T11:49:16;101166.45;;;24.37;61.86
86775;BME280;77538;20.812;106.824;2024-03-25T11:51:46;101167.67;;;24.41;61.84
86775;BME280;77538;20.812;106.824;2024-03-25T11:54:15;101169.20;;;24.46;61.58
86775;BME280;77538;20.812;106.824;2024-03-25T11:56:45;101166.96;;;24.48;61.74
86775;BME280;77538;20.812;106.824;2024-03-25T11:59:13;101163.39;;;24.47;61.67
86775;BME280;77538;20.812;106.824;2024-03-25T12:01:44;101169.52;;;24.48;62.12
86775;BME280;77538;20.812;106.824;2024-03-25T12:04:18;101173.83;;;24.56;61.94
86775;BME280;77538;20.812;106.824;2024-03-25T12:06:48;101170.84;;;24.60;61.43
86775;BME280;77538;20.812;106.824;2024-03-25T12:09:16;101178.27;;;24.58;61.65
86775;BME280;77538;20.812;106.824;2024-03-25T12:12:04;101182.23;;;24.56;61.71
86775;BME280;77538;20.812;106.824;2024-03-25T12:14:33;101188.26;;;24.56;61.89
86775;BME280;77538;20.812;106.824;2024-03-25T12:17:02;101189.13;;;24.56;62.19
86775;BME280;77538;20.812;106.824;2024-03-25T12:19:31;101186.06;;;24.59;61.98
86775;BME280;77538;20.812;106.824;2024-03-25T12:22:01;101193.14;;;24.55;61.68
86775;BME280;77538;20.812;106.824;2024-03-25T12:24:30;101192.14;;;24.47;61.38
86775;BME280;77538;20.812;106.824;2024-03-25T12:27:01;101195.02;;;24.40;61.37
86775;BME280;77538;20.812;106.824;2024-03-25T12:29:30;101198.39;;;24.39;61.51
86775;BME280;77538;20.812;106.824;2024-03-25T12:32:00;101201.89;;;24.37;61.58
86775;BME280;77538;20.812;106.824;2024-03-25T12:34:29;101209.95;;;24.37;61.58
86775;BME280;77538;20.812;106.824;2024-03-25T12:37:02;101211.30;;;24.41;61.66
86775;BME280;77538;20.812;106.824;2024-03-25T12:39:34;101219.94;;;24.41;61.73
86775;BME280;77538;20.812;106.824;2024-03-25T12:42:04;101224.30;;;24.43;61.69
86775;BME280;77538;20.812;106.824;2024-03-25T12:44:35;101228.61;;;24.42;61.72
86775;BME280;77538;20.812;106.824;2024-03-25T12:47:04;101232.60;;;24.43;61.89
86775;BME280;77538;20.812;106.824;2024-03-25T12:49:33;101236.21;;;24.45;61.49
86775;BME280;77538;20.812;106.824;2024-03-25T12:52:05;101235.29;;;24.46;61.63
86775;BME280;77538;20.812;106.824;2024-03-25T12:54:35;101241.80;;;24.46;61.69
86775;BME280;77538;20.812;106.824;2024-03-25T12:57:03;101256.63;;;24.48;61.95
86775;BME280;77538;20.812;106.824;2024-03-25T12:59:34;101258.66;;;24.51;62.01
86775;BME280;77538;20.812;106.824;2024-03-25T13:02:03;101269.77;;;24.52;61.64
86775;BME280;77538;20.812;106.824;2024-03-25T13:04:33;101272.20;;;24.46;61.47
86775;BME280;77538;20.812;106.824;2024-03-25T13:07:01;101283.98;;;24.44;61.61
86775;BME280;77538;20.812;106.824;2024-03-25T13:09:30;101291.29;;;24.42;61.47
86775;BME280;77538;20.812;106.824;2024-03-25T13:12:00;101295.61;;;24.44;61.40
86775;BME280;77538;20.812;106.824;2024-03-25T13:14:28;101299.44;;;24.45;61.58
86775;BME280;77538;20.812;106.824;2024-03-25T13:16:58;101304.05;;;24.48;61.53
86775;BME280;77538;20.812;106.824;2024-03-25T13:19:26;101311.11;;;24.51;61.27
86775;BME280;77538;20.812;106.824;2024-03-25T13:21:57;101319.63;;;24.47;61.15
86775;BME280;77538;20.812;106.824;2024-03-25T13:24:29;101326.58;;;24.48;61.26
86775;BME280;77538;20.812;106.824;2024-03-25T13:27:09;101334.39;;;24.51;61.20
86775;BME280;77538;20.812;106.824;2024-03-25T13:29:37;101336.59;;;24.52;61.11
86775;BME280;77538;20.812;106.824;2024-03-25T13:32:07;101342.27;;;24.55;60.83
86775;BME280;77538;20.812;106.824;2024-03-25T13:34:36;101344.96;;;24.56;61.20
86775;BME280;77538;20.812;106.824;2024-03-25T13:37:06;101347.18;;;24.57;60.83
86775;BME280;77538;20.812;106.824;2024-03-25T13:39:35;101349.29;;;24.56;60.99
86775;BME280;77538;20.812;106.824;2024-03-25T13:42:05;101351.10;;;24.54;61.10
86775;BME280;77538;20.812;106.824;2024-03-25T13:44:33;101359.88;;;24.53;61.39
86775;BME280;77538;20.812;106.824;2024-03-25T13:47:03;101365.61;;;24.54;61.74
86775;BME280;77538;20.812;106.824;2024-03-25T13:49:34;101376.21;;;24.55;61.64
86775;BME280;77538;20.812;106.824;2024-03-25T13:52:03;101378.61;;;24.58;61.42
86775;BME280;77538;20.812;106.824;2024-03-25T13:54:31;101384.41;;;24.59;61.31
86775;BME280;77538;20.812;106.824;2024-03-25T13:57:01;101387.11;;;24.60;61.42
86775;BME280;77538;20.812;106.824;2024-03-25T13:59:30;101390.61;;;24.61;61.40
86775;BME280;77538;20.812;106.824;2024-03-25T14:02:01;101392.89;;;24.62;61.53
86775;BME280;77538;20.812;106.824;2024-03-25T14:04:29;101396.27;;;24.61;61.51
86775;BME280;77538;20.812;106.824;2024-03-25T14:07:00;101403.02;;;24.63;61.49
86775;BME280;77538;20.812;106.824;2024-03-25T14:09:28;101404.63;;;24.63;61.36
86775;BME280;77538;20.812;106.824;2024-03-25T14:11:59;101408.78;;;24.56;61.06
86775;BME280;77538;20.812;106.824;2024-03-25T14:14:27;101410.66;;;24.46;61.12
86775;BME280;77538;20.812;106.824;2024-03-25T14:16:57;101416.67;;;24.40;61.23
86775;BME280;77538;20.812;106.824;2024-03-25T14:19:26;101421.14;;;24.35;61.50
86775;BME280;77538;20.812;106.824;2024-03-25T14:21:56;101419.36;;;24.28;61.42
86775;BME280;77538;20.812;106.824;2024-03-25T14:24:25;101423.40;;;24.23;61.47
86775;BME280;77538;20.812;106.824;2024-03-25T14:26:55;101426.15;;;24.22;61.63
86775;BME280;77538;20.812;106.824;2024-03-25T14:29:23;101423.66;;;24.25;61.47
86775;BME280;77538;20.812;106.824;2024-03-25T14:31:53;101429.23;;;24.29;61.38
86775;BME280;77538;20.812;106.824;2024-03-25T14:34:22;101429.97;;;24.34;61.73
86775;BME280;77538;20.812;106.824;2024-03-25T14:36:52;101429.38;;;24.37;61.50
86775;BME280;77538;20.812;106.824;2024-03-25T14:39:21;101436.46;;;24.43;61.38
86775;BME280;77538;20.812;106.824;2024-03-25T14:41:51;101438.83;;;24.46;61.16
86775;BME280;77538;20.812;106.824;2024-03-25T14:44:19;101442.41;;;24.47;61.01
86775;BME280;77538;20.812;106.824;2024-03-25T14:46:50;101445.50;;;24.46;61.06
86775;BME280;77538;20.812;106.824;2024-03-25T14:49:18;101443.93;;;24.44;61.02
86775;BME280;77538;20.812;106.824;2024-03-25T14:51:48;101446.92;;;24.43;61.06
86775;BME280;77538;20.812;106.824;2024-03-25T14:54:18;101445.98;;;24.42;61.02
86775;BME280;77538;20.812;106.824;2024-03-25T14:56:47;101447.63;;;24.44;60.92
86775;BME280;77538;20.812;106.824;2024-03-25T14:59:16;101447.61;;;24.44;60.95
86775;BME280;77538;20.812;106.824;2024-03-25T15:01:45;101447.98;;;24.40;61.10
86775;BME280;77538;20.812;106.824;2024-03-25T15:04:13;101455.91;;;24.36;60.97
86775;BME280;77538;20.812;106.824;2024-03-25T15:06:41;101454.95;;;24.28;61.02
86775;BME280;77538;20.812;106.824;2024-03-25T15:09:11;101460.33;;;24.18;60.91
86775;BME280;77538;20.812;106.824;2024-03-25T15:11:39;101460.17;;;24.09;61.04
86775;BME280;77538;20.812;106.824;2024-03-25T15:14:10;101460.45;;;23.95;61.27
86775;BME280;77538;20.812;106.824;2024-03-25T15:16:38;101463.72;;;23.89;61.40
86775;BME280;77538;20.812;106.824;2024-03-25T15:19:08;101467.00;;;23.79;61.56
86775;BME280;77538;20.812;106.824;2024-03-25T15:21:36;101468.14;;;23.66;61.58
86775;BME280;77538;20.812;106.824;2024-03-25T15:24:05;101465.02;;;23.53;61.92
86775;BME280;77538;20.812;106.824;2024-03-25T15:26:34;101469.77;;;23.52;62.49
86775;BME280;77538;20.812;106.824;2024-03-25T15:29:02;101471.48;;;23.50;62.45
86775;BME280;77538;20.812;106.824;2024-03-25T15:31:30;101468.27;;;23.48;62.36
86775;BME280;77538;20.812;106.824;2024-03-25T15:33:59;101469.91;;;23.46;62.85
86775;BME280;77538;20.812;106.824;2024-03-25T15:36:27;101469.73;;;23.46;63.17
86775;BME280;77538;20.812;106.824;2024-03-25T15:38:59;101471.45;;;23.48;63.85
86775;BME280;77538;20.812;106.824;2024-03-25T15:41:26;101473.20;;;23.52;64.31
86775;BME280;77538;20.812;106.824;2024-03-25T15:43:54;101489.21;;;23.44;63.53
86775;BME280;77538;20.812;106.824;2024-03-25T15:46:24;101494.08;;;23.22;64.31
86775;BME280;77538;20.812;106.824;2024-03-25T15:48:52;101495.38;;;23.18;65.13
86775;BME280;77538;20.812;106.824;2024-03-25T15:51:22;101491.84;;;23.18;66.38
86775;BME280;77538;20.812;106.824;2024-03-25T15:53:50;101490.42;;;23.22;66.43
86775;BME280;77538;20.812;106.824;2024-03-25T15:56:21;101494.71;;;23.26;66.26
86775;BME280;77538;20.812;106.824;2024-03-25T15:58:49;101492.61;;;23.31;66.11
86775;BME280;77538;20.812;106.824;2024-03-25T16:01:17;101492.70;;;23.31;65.41
86775;BME280;77538;20.812;106.824;2024-03-25T16:03:46;101493.36;;;23.23;64.98
86775;BME280;77538;20.812;106.824;2024-03-25T16:06:15;101495.02;;;23.16;64.94
86775;BME280;77538;20.812;106.824;2024-03-25T16:08:45;101495.79;;;23.11;65.49
86775;BME280;77538;20.812;106.824;2024-03-25T16:11:22;101496.75;;;23.06;65.29
86775;BME280;77538;20.812;106.824;2024-03-25T16:13:51;101498.25;;;23.04;65.34
86775;BME280;77538;20.812;106.824;2024-03-25T16:16:19;101499.89;;;23.02;65.08
86775;BME280;77538;20.812;106.824;2024-03-25T16:18:50;101498.02;;;22.99;65.02
86775;BME280;77538;20.812;106.824;2024-03-25T16:21:18;101494.27;;;22.96;65.25
86775;BME280;77538;20.812;106.824;2024-03-25T16:23:49;101488.98;;;22.92;65.47
86775;BME280;77538;20.812;106.824;2024-03-25T16:26:17;101487.41;;;22.91;65.24
86775;BME280;77538;20.812;106.824;2024-03-25T16:28:47;101489.23;;;22.92;65.27
86775;BME280;77538;20.812;106.824;2024-03-25T16:31:15;101491.30;;;22.92;65.25
86775;BME280;77538;20.812;106.824;2024-03-25T16:33:43;101490.39;;;22.90;64.98
86775;BME280;77538;20.812;106.824;2024-03-25T16:36:12;101493.39;;;22.88;65.42
86775;BME280;77538;20.812;106.824;2024-03-25T16:38:41;101493.70;;;22.88;65.31
86775;BME280;77538;20.812;106.824;2024-03-25T16:41:12;101500.38;;;22.90;65.91
86775;BME280;77538;20.812;106.824;2024-03-25T16:43:40;101501.70;;;22.92;66.22
86775;BME280;77538;20.812;106.824;2024-03-25T16:46:10;101496.18;;;22.92;66.35
86775;BME280;77538;20.812;106.824;2024-03-25T16:48:38;101495.01;;;22.94;66.76
86775;BME280;77538;20.812;106.824;2024-03-25T16:51:08;101490.38;;;22.98;66.96
86775;BME280;77538;20.812;106.824;2024-03-25T16:53:36;101489.88;;;23.02;67.30
86775;BME280;77538;20.812;106.824;2024-03-25T16:56:07;101497.09;;;23.06;67.81
86775;BME280;77538;20.812;106.824;2024-03-25T16:58:35;101498.80;;;23.11;67.85
86775;BME280;77538;20.812;106.824;2024-03-25T17:01:06;101496.34;;;23.14;67.19
86775;BME280;77538;20.812;106.824;2024-03-25T17:03:34;101494.14;;;23.09;66.88
86775;BME280;77538;20.812;106.824;2024-03-25T17:06:04;101496.19;;;23.03;66.94
86775;BME280;77538;20.812;106.824;2024-03-25T17:08:32;101490.92;;;22.99;67.10
86775;BME280;77538;20.812;106.824;2024-03-25T17:11:02;101486.80;;;22.97;67.25
86775;BME280;77538;20.812;106.824;2024-03-25T17:13:30;101480.08;;;22.98;67.45
86775;BME280;77538;20.812;106.824;2024-03-25T17:16:01;101479.14;;;22.97;67.43
86775;BME280;77538;20.812;106.824;2024-03-25T17:18:29;101477.92;;;22.98;67.89
86775;BME280;77538;20.812;106.824;2024-03-25T17:20:59;101474.06;;;22.99;67.99
86775;BME280;77538;20.812;106.824;2024-03-25T17:23:27;101468.31;;;22.99;67.99
86775;BME280;77538;20.812;106.824;2024-03-25T17:25:58;101472.36;;;23.00;67.54
86775;BME280;77538;20.812;106.824;2024-03-25T17:28:30;101467.70;;;22.98;67.60
86775;BME280;77538;20.812;106.824;2024-03-25T17:31:09;101466.80;;;22.96;67.37
86775;BME280;77538;20.812;106.824;2024-03-25T17:33:39;101460.17;;;22.96;67.08
86775;BME280;77538;20.812;106.824;2024-03-25T17:36:07;101461.52;;;22.96;67.56
86775;BME280;77538;20.812;106.824;2024-03-25T17:38:37;101462.17;;;22.95;67.31
86775;BME280;77538;20.812;106.824;2024-03-25T17:41:06;101461.81;;;22.94;66.99
86775;BME280;77538;20.812;106.824;2024-03-25T17:43:37;101456.87;;;22.93;66.87
86775;BME280;77538;20.812;106.824;2024-03-25T17:46:06;101455.27;;;22.94;66.89
86775;BME280;77538;20.812;106.824;2024-03-25T17:48:36;101456.02;;;22.92;66.71
86775;BME280;77538;20.812;106.824;2024-03-25T17:51:04;101452.64;;;22.89;66.78
86775;BME280;77538;20.812;106.824;2024-03-25T17:53:32;101449.58;;;22.88;66.77
86775;BME280;77538;20.812;106.824;2024-03-25T17:56:02;101449.19;;;22.87;66.90
86775;BME280;77538;20.812;106.824;2024-03-25T17:58:30;101447.13;;;22.86;66.92
86775;BME280;77538;20.812;106.824;2024-03-25T18:01:00;101449.34;;;22.87;67.43
86775;BME280;77538;20.812;106.824;2024-03-25T18:03:28;101440.83;;;22.90;67.58
86775;BME280;77538;20.812;106.824;2024-03-25T18:05:59;101441.23;;;22.93;67.87
86775;BME280;77538;20.812;106.824;2024-03-25T18:08:27;101443.30;;;22.97;68.08
86775;BME280;77538;20.812;106.824;2024-03-25T18:10:55;101440.63;;;23.02;68.34
86775;BME280;77538;20.812;106.824;2024-03-25T18:13:24;101434.44;;;23.07;68.79
86775;BME280;77538;20.812;106.824;2024-03-25T18:15:52;101430.64;;;23.13;68.65
86775;BME280;77538;20.812;106.824;2024-03-25T18:18:23;101433.02;;;23.09;67.70
86775;BME280;77538;20.812;106.824;2024-03-25T18:20:51;101434.13;;;23.00;67.47
86775;BME280;77538;20.812;106.824;2024-03-25T18:23:21;101431.10;;;22.92;67.44
86775;BME280;77538;20.812;106.824;2024-03-25T18:25:49;101428.92;;;22.86;67.75
86775;BME280;77538;20.812;106.824;2024-03-25T18:28:19;101424.57;;;22.81;67.63
86775;BME280;77538;20.812;106.824;2024-03-25T18:30:54;101425.61;;;22.77;67.87
86775;BME280;77538;20.812;106.824;2024-03-25T18:33:24;101429.84;;;22.74;68.00
86775;BME280;77538;20.812;106.824;2024-03-25T18:35:53;101428.08;;;22.74;68.53
86775;BME280;77538;20.812;106.824;2024-03-25T18:38:23;101428.48;;;22.74;68.45
86775;BME280;77538;20.812;106.824;2024-03-25T18:40:51;101424.21;;;22.72;68.09
86775;BME280;77538;20.812;106.824;2024-03-25T18:43:22;101423.65;;;22.72;68.42
86775;BME280;77538;20.812;106.824;2024-03-25T18:45:50;101428.20;;;22.71;68.36
86775;BME280;77538;20.812;106.824;2024-03-25T18:48:20;101426.77;;;22.68;68.23
86775;BME280;77538;20.812;106.824;2024-03-25T18:50:49;101428.85;;;22.68;68.65
86775;BME280;77538;20.812;106.824;2024-03-25T18:53:19;101432.60;;;22.71;69.03
86775;BME280;77538;20.812;106.824;2024-03-25T18:55:47;101432.09;;;22.73;68.89
86775;BME280;77538;20.812;106.824;2024-03-25T18:58:15;101429.49;;;22.75;68.93
86775;BME280;77538;20.812;106.824;2024-03-25T19:00:45;101431.05;;;22.76;69.27
86775;BME280;77538;20.812;106.824;2024-03-25T19:03:13;101432.80;;;22.81;69.27
86775;BME280;77538;20.812;106.824;2024-03-25T19:05:43;101431.95;;;22.83;69.04
86775;BME280;77538;20.812;106.824;2024-03-25T19:08:31;101427.58;;;22.86;69.68
86775;BME280;77538;20.812;106.824;2024-03-25T19:11:01;101423.17;;;22.90;70.26
86775;BME280;77538;20.812;106.824;2024-03-25T19:13:29;101422.05;;;22.97;70.26
86775;BME280;77538;20.812;106.824;2024-03-25T19:16:00;101423.46;;;23.05;70.00
86775;BME280;77538;20.812;106.824;2024-03-25T19:18:28;101420.17;;;23.12;70.03
86775;BME280;77538;20.812;106.824;2024-03-25T19:20:58;101423.68;;;23.13;69.29
86775;BME280;77538;20.812;106.824;2024-03-25T19:23:26;101423.41;;;23.04;68.75
86775;BME280;77538;20.812;106.824;2024-03-25T19:25:57;101424.50;;;22.95;68.85
86775;BME280;77538;20.812;106.824;2024-03-25T19:28:26;101422.77;;;22.89;69.10
86775;BME280;77538;20.812;106.824;2024-03-25T19:30:56;101423.02;;;22.86;69.12
86775;BME280;77538;20.812;106.824;2024-03-25T19:33:24;101423.61;;;22.81;68.91
86775;BME280;77538;20.812;106.824;2024-03-25T19:35:54;101418.63;;;22.75;68.94
86775;BME280;77538;20.812;106.824;2024-03-25T19:38:24;101419.05;;;22.71;68.99
86775;BME280;77538;20.812;106.824;2024-03-25T19:40:53;101417.23;;;22.66;68.51
86775;BME280;77538;20.812;106.824;2024-03-25T19:43:22;101413.25;;;22.62;68.39
86775;BME280;77538;20.812;106.824;2024-03-25T19:45:53;101412.70;;;22.62;68.94
86775;BME280;77538;20.812;106.824;2024-03-25T19:48:21;101409.23;;;22.62;69.17
86775;BME280;77538;20.812;106.824;2024-03-25T19:50:51;101403.41;;;22.63;68.87
86775;BME280;77538;20.812;106.824;2024-03-25T19:53:19;101402.65;;;22.65;69.13
86775;BME280;77538;20.812;106.824;2024-03-25T19:55:59;101405.92;;;22.68;69.32
86775;BME280;77538;20.812;106.824;2024-03-25T19:58:29;101404.10;;;22.72;69.25
86775;BME280;77538;20.812;106.824;2024-03-25T20:01:04;101395.69;;;22.76;69.77
86775;BME280;77538;20.812;106.824;2024-03-25T20:03:34;101391.78;;;22.83;69.95
86775;BME280;77538;20.812;106.824;2024-03-25T20:06:06;101392.85;;;22.89;70.09
86775;BME280;77538;20.812;106.824;2024-03-25T20:08:36;101394.52;;;22.97;70.19
86775;BME280;77538;20.812;106.824;2024-03-25T20:11:05;101390.90;;;23.04;70.13
86775;BME280;77538;20.812;106.824;2024-03-25T20:13:35;101394.15;;;23.09;70.14
86775;BME280;77538;20.812;106.824;2024-03-25T20:16:03;101399.44;;;23.08;69.21
86775;BME280;77538;20.812;106.824;2024-03-25T20:18:33;101388.91;;;23.04;69.45
86775;BME280;77538;20.812;106.824;2024-03-25T20:21:02;101380.41;;;23.03;69.67
86775;BME280;77538;20.812;106.824;2024-03-25T20:23:31;101379.98;;;23.00;69.29
86775;BME280;77538;20.812;106.824;2024-03-25T20:25:59;101380.20;;;22.98;69.17
86775;BME280;77538;20.812;106.824;2024-03-25T20:28:31;101378.98;;;22.95;68.99
86775;BME280;77538;20.812;106.824;2024-03-25T20:30:58;101379.48;;;22.94;69.11
86775;BME280;77538;20.812;106.824;2024-03-25T20:33:29;101379.52;;;22.89;68.95
86775;BME280;77538;20.812;106.824;2024-03-25T20:35:58;101387.73;;;22.86;69.51
86775;BME280;77538;20.812;106.824;2024-03-25T20:38:29;101388.37;;;22.86;69.89
86775;BME280;77538;20.812;106.824;2024-03-25T20:40:57;101386.90;;;22.88;69.58
86775;BME280;77538;20.812;106.824;2024-03-25T20:43:27;101387.36;;;22.84;69.45
86775;BME280;77538;20.812;106.824;2024-03-25T20:45:55;101386.60;;;22.80;69.12
86775;BME280;77538;20.812;106.824;2024-03-25T20:48:23;101383.34;;;22.75;69.87
86775;BME280;77538;20.812;106.824;2024-03-25T20:50:52;101383.08;;;22.76;69.69
86775;BME280;77538;20.812;106.824;2024-03-25T20:53:20;101377.33;;;22.76;69.86
86775;BME280;77538;20.812;106.824;2024-03-25T20:55:49;101381.35;;;22.76;70.14
86775;BME280;77538;20.812;106.824;2024-03-25T20:58:18;101390.09;;;22.77;70.09
86775;BME280;77538;20.812;106.824;2024-03-25T21:00:47;101392.38;;;22.75;69.91
86775;BME280;77538;20.812;106.824;2024-03-25T21:03:16;101396.20;;;22.71;69.76
86775;BME280;77538;20.812;106.824;2024-03-25T21:05:57;101396.77;;;22.71;69.99
86775;BME280;77538;20.812;106.824;2024-03-25T21:08:27;101400.09;;;22.73;70.38
86775;BME280;77538;20.812;106.824;2024-03-25T21:10:55;101400.49;;;22.73;70.03
86775;BME280;77538;20.812;106.824;2024-03-25T21:13:26;101397.45;;;22.73;69.94
86775;BME280;77538;20.812;106.824;2024-03-25T21:15:55;101396.23;;;22.71;70.00
86775;BME280;77538;20.812;106.824;2024-03-25T21:18:25;101397.80;;;22.68;69.68
86775;BME280;77538;20.812;106.824;2024-03-25T21:20:53;101403.12;;;22.62;69.84
86775;BME280;77538;20.812;106.824;2024-03-25T21:23:23;101406.88;;;22.62;70.20
86775;BME280;77538;20.812;106.824;2024-03-25T21:25:52;101404.64;;;22.62;69.96
86775;BME280;77538;20.812;106.824;2024-03-25T21:28:21;101404.88;;;22.61;69.83
86775;BME280;77538;20.812;106.824;2024-03-25T21:30:50;101413.10;;;22.65;69.93
86775;BME280;77538;20.812;106.824;2024-03-25T21:33:20;101411.41;;;22.65;69.74
86775;BME280;77538;20.812;106.824;2024-03-25T21:35:48;101415.52;;;22.64;70.04
86775;BME280;77538;20.812;106.824;2024-03-25T21:38:18;101420.23;;;22.63;70.22
86775;BME280;77538;20.812;106.824;2024-03-25T21:40:47;101423.49;;;22.64;70.41
86775;BME280;77538;20.812;106.824;2024-03-25T21:43:17;101423.52;;;22.63;69.94
86775;BME280;77538;20.812;106.824;2024-03-25T21:45:53;101430.67;;;22.61;70.20
86775;BME280;77538;20.812;106.824;2024-03-25T21:48:21;101436.36;;;22.63;70.01
86775;BME280;77538;20.812;106.824;2024-03-25T21:50:58;101432.95;;;22.66;70.23
86775;BME280;77538;20.812;106.824;2024-03-25T21:53:28;101440.66;;;22.64;70.26
86775;BME280;77538;20.812;106.824;2024-03-25T21:56:17;101445.05;;;22.64;70.24
86775;BME280;77538;20.812;106.824;2024-03-25T21:58:46;101445.60;;;22.61;69.99